createdAt,value
2023-05-18T00:01:14.531Z,99784.57
2023-05-18T00:03:42.507Z,99784.35
2023-05-18T00:06:10.474Z,99786.57
2023-05-18T00:08:37.961Z,99787.58
2023-05-18T00:11:05.724Z,99790.34
2023-05-18T00:13:33.540Z,99784.62
2023-05-18T00:16:00.795Z,99791.80
2023-05-18T00:18:28.489Z,99790.14
2023-05-18T00:21:02.325Z,99791.05
2023-05-18T00:23:33.329Z,99792.48
2023-05-18T00:26:01.561Z,99789.23
2023-05-18T00:28:28.986Z,99792.29
2023-05-18T00:30:56.483Z,99790.69
2023-05-18T00:33:23.651Z,99788.73
2023-05-18T00:35:50.826Z,99788.13
2023-05-18T00:38:18.377Z,99789.02
2023-05-18T00:40:45.659Z,99789.13
2023-05-18T00:43:13.022Z,99786.58
2023-05-18T00:45:40.078Z,99786.01
2023-05-18T00:48:07.427Z,99783.55
2023-05-18T00:50:35.238Z,99780.56
2023-05-18T00:53:02.415Z,99777.91
2023-05-18T00:55:29.673Z,99781.00
2023-05-18T00:57:57.152Z,99782.48
2023-05-18T01:00:24.522Z,99779.98
2023-05-18T01:02:53.205Z,99780.85
2023-05-18T01:05:22.449Z,99782.96
2023-05-18T01:07:50.658Z,99779.73
2023-05-18T01:10:19.081Z,99781.73
2023-05-18T01:13:04.464Z,99782.95
2023-05-18T01:15:37.497Z,99786.60
2023-05-18T01:18:43.798Z,99788.64
2023-05-18T01:21:19.346Z,99791.76
2023-05-18T01:24:05.196Z,99796.88
2023-05-18T01:26:37.853Z,99797.91
2023-05-18T01:29:10.210Z,99803.01
2023-05-18T01:31:37.336Z,99796.65
2023-05-18T01:34:04.569Z,99801.55
2023-05-18T01:36:32.094Z,99804.77
2023-05-18T01:39:01.838Z,99809.78
2023-05-18T01:41:30.415Z,99808.50
2023-05-18T01:44:12.721Z,99810.15
2023-05-18T01:46:49.071Z,99812.91
2023-05-18T01:49:19.362Z,99814.14
2023-05-18T01:51:46.770Z,99810.80
2023-05-18T01:54:16.282Z,99814.25
2023-05-18T01:56:43.409Z,99819.16
2023-05-18T01:59:11.053Z,99822.81
2023-05-18T02:01:38.267Z,99822.91
2023-05-18T02:04:10.229Z,99821.35
2023-05-18T02:06:37.714Z,99822.22
2023-05-18T02:09:05.780Z,99823.79
2023-05-18T02:11:33.601Z,99824.89
2023-05-18T02:14:01.705Z,99827.16
2023-05-18T02:16:28.884Z,99826.94
2023-05-18T02:18:56.368Z,99830.70
2023-05-18T02:21:23.576Z,99825.88
2023-05-18T02:23:50.729Z,99828.45
2023-05-18T02:26:17.904Z,99830.51
2023-05-18T02:28:52.716Z,99830.69
2023-05-18T02:31:20.072Z,99834.33
2023-05-18T02:33:47.248Z,99835.65
2023-05-18T02:36:14.486Z,99837.41
2023-05-18T02:38:43.590Z,99837.99
2023-05-18T02:41:11.485Z,99841.81
2023-05-18T02:43:38.695Z,99843.27
2023-05-18T02:46:06.862Z,99840.29
2023-05-18T02:48:34.340Z,99845.08
2023-05-18T02:51:01.614Z,99845.63
2023-05-18T02:53:28.749Z,99848.30
2023-05-18T02:56:03.535Z,99847.77
2023-05-18T02:58:50.964Z,99850.80
2023-05-18T03:01:22.671Z,99851.44
2023-05-18T03:03:53.321Z,99852.67
2023-05-18T03:06:26.918Z,99854.15
2023-05-18T03:08:54.812Z,99853.77
2023-05-18T03:11:24.097Z,99853.24
2023-05-18T03:13:51.426Z,99854.04
2023-05-18T03:16:19.032Z,99849.85
2023-05-18T03:18:47.079Z,99847.02
2023-05-18T03:21:14.323Z,99851.67
2023-05-18T03:23:41.731Z,99851.11
2023-05-18T03:26:11.833Z,99853.39
2023-05-18T03:28:39.391Z,99856.77
2023-05-18T03:31:06.905Z,99855.05
2023-05-18T03:33:34.101Z,99858.37
2023-05-18T03:36:03.688Z,99859.01
2023-05-18T03:38:31.604Z,99864.34
2023-05-18T03:41:03.087Z,99863.24
2023-05-18T03:43:32.771Z,99866.28
2023-05-18T03:46:01.056Z,99870.00
2023-05-18T03:48:28.340Z,99868.21
2023-05-18T03:50:55.909Z,99871.23
2023-05-18T03:53:23.295Z,99871.66
2023-05-18T03:55:51.885Z,99874.34
2023-05-18T03:58:22.637Z,99874.21
2023-05-18T04:00:49.899Z,99873.94
2023-05-18T04:03:17.261Z,99871.64
2023-05-18T04:05:44.867Z,99874.10
2023-05-18T04:08:14.922Z,99877.87
2023-05-18T04:10:43.387Z,99876.11
2023-05-18T04:13:11.298Z,99878.70
2023-05-18T04:15:38.671Z,99882.92
2023-05-18T04:18:05.984Z,99883.98
2023-05-18T04:20:33.242Z,99886.11
2023-05-18T04:23:01.527Z,99887.40
2023-05-18T04:25:29.009Z,99889.13
2023-05-18T04:27:56.821Z,99889.65
2023-05-18T04:30:27.018Z,99895.68
2023-05-18T04:32:54.860Z,99891.70
2023-05-18T04:35:22.275Z,99895.98
2023-05-18T04:37:49.968Z,99897.33
2023-05-18T04:40:18.192Z,99898.77
2023-05-18T04:42:48.692Z,99897.38
2023-05-18T04:45:34.565Z,99897.59
2023-05-18T04:48:02.307Z,99898.38
2023-05-18T04:50:29.894Z,99895.77
2023-05-18T04:52:58.182Z,99900.59
2023-05-18T04:55:28.631Z,99901.60
2023-05-18T04:58:00.578Z,99901.24
2023-05-18T05:00:29.417Z,99905.56
2023-05-18T05:02:57.186Z,99905.84
2023-05-18T05:05:24.598Z,99904.59
2023-05-18T05:07:52.721Z,99903.31
2023-05-18T05:10:20.933Z,99909.52
2023-05-18T05:12:49.938Z,99912.00
2023-05-18T05:15:18.029Z,99913.98
2023-05-18T05:17:47.260Z,99915.64
2023-05-18T05:20:14.578Z,99914.52
2023-05-18T05:22:42.611Z,99910.14
2023-05-18T05:25:11.688Z,99908.42
2023-05-18T05:27:39.690Z,99909.13
2023-05-18T05:30:07.697Z,99911.71
2023-05-18T05:32:36.988Z,99911.33
2023-05-18T05:35:06.545Z,99911.16
2023-05-18T05:37:35.102Z,99909.66
2023-05-18T05:40:02.265Z,99910.17
2023-05-18T05:42:32.828Z,99909.75
2023-05-18T05:45:00.151Z,99911.63
2023-05-18T05:47:28.257Z,99918.33
2023-05-18T05:49:55.508Z,99918.34
2023-05-18T05:52:22.949Z,99922.70
2023-05-18T05:54:51.302Z,99922.21
2023-05-18T05:57:18.884Z,99925.80
2023-05-18T05:59:46.186Z,99925.88
2023-05-18T06:02:15.188Z,99923.26
2023-05-18T06:04:42.421Z,99925.55
2023-05-18T06:07:09.957Z,99925.13
2023-05-18T06:09:37.514Z,99923.98
2023-05-18T06:12:05.129Z,99929.45
2023-05-18T06:14:34.043Z,99932.38
2023-05-18T06:17:01.486Z,99931.38
2023-05-18T06:19:28.636Z,99927.09
2023-05-18T06:21:56.029Z,99928.64
2023-05-18T06:24:25.456Z,99928.39
2023-05-18T06:27:16.991Z,99926.63
2023-05-18T06:29:53.263Z,99925.66
2023-05-18T06:32:46.746Z,99924.89
2023-05-18T06:35:13.936Z,99925.95
2023-05-18T06:37:41.221Z,99923.22
2023-05-18T06:40:09.492Z,99919.71
2023-05-18T06:42:36.826Z,99923.64
2023-05-18T06:45:24.051Z,99925.84
2023-05-18T06:47:54.207Z,99929.46
2023-05-18T06:50:21.621Z,99928.43
2023-05-18T06:52:48.900Z,99930.14
2023-05-18T06:55:16.346Z,99930.14
2023-05-18T06:57:43.628Z,99928.06
2023-05-18T07:00:12.712Z,99925.55
2023-05-18T07:02:41.386Z,99928.41
2023-05-18T07:05:09.464Z,99928.92
2023-05-18T07:07:37.999Z,99931.98
2023-05-18T07:10:06.185Z,99931.96
2023-05-18T07:12:33.417Z,99929.91
2023-05-18T07:15:00.680Z,99931.14
2023-05-18T07:17:27.942Z,99925.51
2023-05-18T07:19:55.062Z,99927.58
2023-05-18T07:22:22.355Z,99931.09
2023-05-18T07:24:49.506Z,99927.66
2023-05-18T07:27:16.578Z,99923.83
2023-05-18T07:29:43.953Z,99930.40
2023-05-18T07:32:11.202Z,99928.18
2023-05-18T07:34:38.616Z,99930.27
2023-05-18T07:37:06.030Z,99929.56
2023-05-18T07:39:33.136Z,99927.94
2023-05-18T07:42:00.277Z,99928.86
2023-05-18T07:44:27.452Z,99923.20
2023-05-18T07:46:54.682Z,99926.58
2023-05-18T07:49:23.521Z,99929.30
2023-05-18T07:51:51.369Z,99929.51
2023-05-18T07:54:18.391Z,99925.63
2023-05-18T07:56:45.483Z,99928.59
2023-05-18T07:59:12.696Z,99926.28
2023-05-18T08:01:40.990Z,99930.48
2023-05-18T08:04:08.284Z,99924.79
2023-05-18T08:06:35.473Z,99924.23
2023-05-18T08:09:02.609Z,99928.53
2023-05-18T08:11:29.789Z,99928.96
2023-05-18T08:13:57.016Z,99926.81
2023-05-18T08:16:24.184Z,99925.47
2023-05-18T08:18:51.448Z,99925.09
2023-05-18T08:21:18.727Z,99928.11
2023-05-18T08:23:46.955Z,99920.02
2023-05-18T08:26:14.438Z,99916.07
2023-05-18T08:28:42.230Z,99917.75
2023-05-18T08:31:09.384Z,99915.93
2023-05-18T08:33:36.640Z,99916.42
2023-05-18T08:36:04.173Z,99911.33
2023-05-18T08:38:32.309Z,99915.69
2023-05-18T08:41:06.314Z,99910.86
2023-05-18T08:43:33.605Z,99910.61
2023-05-18T08:46:26.935Z,99912.05
2023-05-18T08:48:54.333Z,99911.84
2023-05-18T08:51:22.019Z,99908.91
2023-05-18T08:53:53.053Z,99907.75
2023-05-18T08:56:23.897Z,99905.05
2023-05-18T08:58:53.777Z,99901.89
2023-05-18T09:01:21.277Z,99902.35
2023-05-18T09:03:51.314Z,99899.31
2023-05-18T09:06:18.672Z,99900.98
2023-05-18T09:08:45.808Z,99895.91
2023-05-18T09:11:13.282Z,99895.36
2023-05-18T09:13:40.485Z,99892.06
2023-05-18T09:16:08.368Z,99896.77
2023-05-18T09:18:35.947Z,99898.10
2023-05-18T09:21:03.083Z,99891.56
2023-05-18T09:23:30.861Z,99897.30
2023-05-18T09:25:57.982Z,99898.05
2023-05-18T09:28:37.861Z,99896.06
2023-05-18T09:31:07.954Z,99901.79
2023-05-18T09:33:39.486Z,99898.49
2023-05-18T09:36:07.904Z,99893.36
2023-05-18T09:38:38.756Z,99893.61
2023-05-18T09:41:10.517Z,99887.42
2023-05-18T09:43:37.708Z,99886.45
2023-05-18T09:46:08.456Z,99883.14
2023-05-18T09:48:37.358Z,99885.91
2023-05-18T09:51:06.908Z,99882.95
2023-05-18T09:53:39.981Z,99881.09
2023-05-18T09:56:11.522Z,99881.86
2023-05-18T09:58:39.630Z,99881.41
2023-05-18T10:01:07.334Z,99880.84
2023-05-18T10:03:37.107Z,99881.08
2023-05-18T10:06:05.777Z,99884.64
2023-05-18T10:08:33.876Z,99881.11
2023-05-18T10:11:01.185Z,99877.08
2023-05-18T10:13:29.173Z,99867.52
2023-05-18T10:15:57.124Z,99867.34
2023-05-18T10:18:28.464Z,99869.80
2023-05-18T10:20:59.188Z,99873.41
2023-05-18T10:23:30.533Z,99869.01
2023-05-18T10:25:58.281Z,99865.60
2023-05-18T10:28:30.973Z,99864.94
2023-05-18T10:30:59.177Z,99862.19
2023-05-18T10:33:29.438Z,99861.56
2023-05-18T10:35:57.462Z,99869.33
2023-05-18T10:38:28.398Z,99862.56
2023-05-18T10:40:56.745Z,99861.64
2023-05-18T10:43:27.671Z,99854.95
2023-05-18T10:45:59.276Z,99851.75
2023-05-18T10:48:27.280Z,99849.00
2023-05-18T10:53:33.714Z,99858.34
2023-05-18T10:56:01.852Z,99851.08
2023-05-18T10:58:30.018Z,99856.54
2023-05-18T11:01:01.683Z,99856.16
2023-05-18T11:03:29.067Z,99855.66
2023-05-18T11:06:07.185Z,99851.65
2023-05-18T11:08:34.829Z,99851.75
2023-05-18T11:11:03.308Z,99849.36
2023-05-18T11:13:31.602Z,99850.00
2023-05-18T11:16:01.687Z,99853.08
2023-05-18T11:18:36.277Z,99840.15
2023-05-18T11:21:03.568Z,99837.81
2023-05-18T11:23:33.716Z,99840.79
2023-05-18T11:26:03.301Z,99840.25
2023-05-18T11:28:31.200Z,99840.88
2023-05-18T11:30:58.449Z,99843.55
2023-05-18T11:33:30.895Z,99838.27
2023-05-18T11:36:01.301Z,99841.70
2023-05-18T11:38:52.968Z,99839.33
2023-05-18T11:41:47.781Z,99837.55
2023-05-18T11:44:16.605Z,99835.08
2023-05-18T11:46:54.004Z,99832.23
2023-05-18T11:49:23.808Z,99830.93
2023-05-18T11:51:58.896Z,99834.54
2023-05-18T11:54:26.714Z,99835.50
2023-05-18T11:56:53.940Z,99832.15
2023-05-18T11:59:36.578Z,99832.52
2023-05-18T12:02:04.535Z,99834.32
2023-05-18T12:04:33.772Z,99829.16
2023-05-18T12:07:04.465Z,99832.44
2023-05-18T12:09:32.301Z,99835.46
2023-05-18T12:11:59.660Z,99826.41
2023-05-18T12:14:26.914Z,99827.45
2023-05-18T12:16:54.367Z,99831.14
2023-05-18T12:19:23.719Z,99833.53
2023-05-18T12:21:50.967Z,99837.16
2023-05-18T12:24:18.110Z,99828.99
2023-05-18T12:26:46.882Z,99830.24
2023-05-18T12:29:20.374Z,99830.23
2023-05-18T12:31:48.245Z,99833.42
2023-05-18T12:34:15.575Z,99831.15
2023-05-18T12:36:51.867Z,99836.19
2023-05-18T12:39:19.277Z,99832.36
2023-05-18T12:41:46.325Z,99829.54
2023-05-18T12:44:14.406Z,99825.00
2023-05-18T12:46:42.090Z,99818.73
2023-05-18T12:49:09.293Z,99815.65
2023-05-18T12:51:37.905Z,99815.71
2023-05-18T12:54:08.183Z,99818.59
2023-05-18T12:56:52.844Z,99817.84
2023-05-18T12:59:20.473Z,99814.79
2023-05-18T13:01:47.763Z,99815.39
2023-05-18T13:04:15.202Z,99816.89
2023-05-18T13:06:42.743Z,99812.45
2023-05-18T13:09:13.091Z,99807.55
2023-05-18T13:11:40.534Z,99811.19
2023-05-18T13:14:08.455Z,99808.73
2023-05-18T13:16:38.361Z,99805.30
2023-05-18T13:19:10.041Z,99804.89
2023-05-18T13:21:37.587Z,99803.59
2023-05-18T13:24:05.341Z,99802.80
2023-05-18T13:26:33.215Z,99802.08
2023-05-18T13:29:00.582Z,99799.60
2023-05-18T13:31:29.916Z,99799.39
2023-05-18T13:33:57.572Z,99800.74
2023-05-18T13:36:24.771Z,99797.69
2023-05-18T13:38:52.549Z,99799.48
2023-05-18T13:41:19.840Z,99795.92
2023-05-18T13:43:46.987Z,99798.38
2023-05-18T13:46:14.141Z,99795.06
2023-05-18T13:48:41.482Z,99797.70
2023-05-18T13:51:08.664Z,99795.09
2023-05-18T13:53:36.562Z,99789.89
2023-05-18T13:56:05.566Z,99796.02
2023-05-18T13:58:32.674Z,99798.54
2023-05-18T14:01:04.171Z,99798.10
2023-05-18T14:03:34.314Z,99796.18
2023-05-18T14:06:01.481Z,99798.23
2023-05-18T14:08:28.562Z,99796.89
2023-05-18T14:10:55.778Z,99797.05
2023-05-18T14:13:22.952Z,99800.38
2023-05-18T14:15:50.108Z,99802.66
2023-05-18T14:18:17.281Z,99801.27
2023-05-18T14:20:45.024Z,99802.60
2023-05-18T14:23:12.129Z,99801.60
2023-05-18T14:25:39.536Z,99802.30
2023-05-18T14:28:06.968Z,99799.55
2023-05-18T14:30:34.022Z,99796.69
2023-05-18T14:33:01.642Z,99792.73
2023-05-18T14:35:28.650Z,99794.33
2023-05-18T14:37:55.759Z,99795.55
2023-05-18T14:40:23.100Z,99792.16
2023-05-18T14:42:51.584Z,99794.35
2023-05-18T14:45:20.896Z,99790.31
2023-05-18T14:47:48.335Z,99790.70
2023-05-18T14:50:15.510Z,99786.62
2023-05-18T14:52:42.922Z,99789.05
2023-05-18T14:55:10.149Z,99791.81
2023-05-18T14:57:37.483Z,99789.36
2023-05-18T15:00:05.019Z,99785.58
2023-05-18T15:02:32.407Z,99788.48
2023-05-18T15:04:59.855Z,99784.16
2023-05-18T15:07:26.969Z,99786.46
2023-05-18T15:09:55.526Z,99783.48
2023-05-18T15:12:23.630Z,99783.14
2023-05-18T15:14:50.867Z,99781.94
2023-05-18T15:17:18.164Z,99780.37
2023-05-18T15:19:45.357Z,99780.99
2023-05-18T15:22:12.666Z,99779.64
2023-05-18T15:24:40.023Z,99778.63
2023-05-18T15:27:07.332Z,99777.52
2023-05-18T15:29:35.500Z,99780.90
2023-05-18T15:32:02.758Z,99784.55
2023-05-18T15:34:33.456Z,99782.31
2023-05-18T15:37:01.421Z,99783.54
2023-05-18T15:39:29.228Z,99783.95
2023-05-18T15:41:56.587Z,99787.20
2023-05-18T15:44:23.890Z,99789.25
2023-05-18T15:46:51.050Z,99785.34
2023-05-18T15:49:19.022Z,99784.80
2023-05-18T15:51:46.040Z,99784.72
2023-05-18T15:54:13.358Z,99784.33
2023-05-18T15:56:41.087Z,99785.25
2023-05-18T15:59:08.834Z,99786.44
2023-05-18T16:01:36.371Z,99785.52
2023-05-18T16:04:03.755Z,99788.31
2023-05-18T16:06:30.934Z,99785.80
2023-05-18T16:08:58.340Z,99788.86
2023-05-18T16:11:26.137Z,99787.32
2023-05-18T16:13:57.059Z,99791.20
2023-05-18T16:16:25.633Z,99794.16
2023-05-18T16:18:53.156Z,99796.49
2023-05-18T16:21:20.369Z,99798.83
2023-05-18T16:23:47.619Z,99795.41
2023-05-18T16:26:14.801Z,99798.85
2023-05-18T16:28:42.056Z,99795.23
2023-05-18T16:31:11.373Z,99798.48
2023-05-18T16:33:38.741Z,99795.27
2023-05-18T16:36:06.437Z,99804.48
2023-05-18T16:38:37.857Z,99804.99
2023-05-18T16:41:05.431Z,99811.73
2023-05-18T16:43:32.906Z,99810.21
2023-05-18T16:46:00.301Z,99812.23
2023-05-18T16:48:27.617Z,99815.38
2023-05-18T16:50:54.737Z,99815.52
2023-05-18T16:53:21.928Z,99819.57
2023-05-18T16:55:49.742Z,99817.98
2023-05-18T16:58:17.176Z,99818.94
2023-05-18T17:00:44.451Z,99818.81
2023-05-18T17:03:11.934Z,99817.23
2023-05-18T17:05:39.072Z,99821.48
2023-05-18T17:08:06.232Z,99827.04
2023-05-18T17:10:35.696Z,99826.23
2023-05-18T17:13:02.981Z,99821.73
2023-05-18T17:15:31.580Z,99820.47
2023-05-18T17:17:59.313Z,99823.84
2023-05-18T17:20:26.735Z,99821.20
2023-05-18T17:22:54.072Z,99820.88
2023-05-18T17:25:21.323Z,99825.13
2023-05-18T17:27:48.482Z,99825.98
2023-05-18T17:30:15.766Z,99829.39
2023-05-18T17:32:45.647Z,99830.16
2023-05-18T17:35:14.264Z,99828.80
2023-05-18T17:37:41.746Z,99837.80
2023-05-18T17:40:09.915Z,99837.35
2023-05-18T17:42:37.250Z,99842.89
2023-05-18T17:45:04.753Z,99848.31
2023-05-18T17:47:31.986Z,99850.38
2023-05-18T17:49:59.091Z,99858.23
2023-05-18T17:52:27.039Z,99858.84
2023-05-18T17:54:54.422Z,99861.70
2023-05-18T17:57:23.142Z,99865.44
2023-05-18T17:59:50.413Z,99868.30
2023-05-18T18:02:17.509Z,99868.65
2023-05-18T18:04:44.678Z,99870.77
2023-05-18T18:07:11.853Z,99868.74
2023-05-18T18:09:39.259Z,99880.15
2023-05-18T18:12:06.858Z,99880.77
2023-05-18T18:14:34.225Z,99884.77
2023-05-18T18:17:01.429Z,99886.27
2023-05-18T18:19:30.420Z,99888.34
2023-05-18T18:21:57.881Z,99890.34
2023-05-18T18:24:25.215Z,99895.13
2023-05-18T18:26:52.906Z,99891.16
2023-05-18T18:29:20.190Z,99896.51
2023-05-18T18:31:47.363Z,99893.66
2023-05-18T18:34:15.059Z,99894.48
2023-05-18T18:36:42.669Z,99894.34
2023-05-18T18:39:09.976Z,99893.00
2023-05-18T18:41:37.095Z,99896.84
2023-05-18T18:44:04.355Z,99897.88
2023-05-18T18:46:31.716Z,99898.55
2023-05-18T18:48:59.116Z,99900.81
2023-05-18T18:51:26.399Z,99900.10
2023-05-18T18:53:53.579Z,99903.59
2023-05-18T18:56:21.733Z,99903.64
2023-05-18T18:58:50.984Z,99906.04
2023-05-18T19:01:18.416Z,99902.75
2023-05-18T19:03:45.977Z,99906.21
2023-05-18T19:06:14.903Z,99906.77
2023-05-18T19:08:42.580Z,99911.05
2023-05-18T19:11:09.764Z,99908.44
2023-05-18T19:13:36.972Z,99910.66
2023-05-18T19:16:04.409Z,99908.45
2023-05-18T19:18:31.558Z,99912.47
2023-05-18T19:21:01.585Z,99912.46
2023-05-18T19:23:28.799Z,99913.38
2023-05-18T19:25:56.057Z,99912.95
2023-05-18T19:28:23.261Z,99912.38
2023-05-18T19:30:50.465Z,99914.91
2023-05-18T19:33:17.583Z,99914.16
2023-05-18T19:35:44.997Z,99916.63
2023-05-18T19:38:12.211Z,99914.76
2023-05-18T19:40:39.482Z,99915.53
2023-05-18T19:43:06.633Z,99919.16
2023-05-18T19:45:34.241Z,99921.02
2023-05-18T19:48:01.890Z,99913.61
2023-05-18T19:50:29.075Z,99917.91
2023-05-18T19:52:56.188Z,99916.39
2023-05-18T19:55:23.223Z,99923.95
2023-05-18T19:57:50.614Z,99920.61
2023-05-18T20:00:17.962Z,99923.26
2023-05-18T20:02:45.092Z,99924.98
2023-05-18T20:05:13.357Z,99927.73
2023-05-18T20:07:41.176Z,99928.30
2023-05-18T20:10:08.180Z,99933.08
2023-05-18T20:12:35.552Z,99935.49
2023-05-18T20:15:02.811Z,99935.90
2023-05-18T20:17:29.935Z,99936.83
2023-05-18T20:19:57.185Z,99939.89
2023-05-18T20:22:24.443Z,99939.13
2023-05-18T20:24:51.679Z,99939.66
2023-05-18T20:27:19.032Z,99941.97
2023-05-18T20:29:46.751Z,99946.60
2023-05-18T20:32:13.826Z,99945.98
2023-05-18T20:34:41.638Z,99946.88
2023-05-18T20:37:10.912Z,99949.88
2023-05-18T20:39:40.110Z,99950.27
2023-05-18T20:42:08.059Z,99947.95
2023-05-18T20:44:35.349Z,99950.83
2023-05-18T20:47:02.829Z,99951.94
2023-05-18T20:49:30.157Z,99949.77
2023-05-18T20:51:57.270Z,99950.33
2023-05-18T20:54:24.304Z,99951.16
2023-05-18T20:56:51.603Z,99952.63
2023-05-18T20:59:19.262Z,99954.80
2023-05-18T21:01:46.520Z,99950.52
2023-05-18T21:04:14.271Z,99951.44
2023-05-18T21:06:44.161Z,99948.80
2023-05-18T21:09:12.027Z,99948.29
2023-05-18T21:11:39.135Z,99948.45
2023-05-18T21:14:06.335Z,99947.10
2023-05-18T21:16:33.933Z,99945.61
2023-05-18T21:19:01.696Z,99948.17
2023-05-18T21:21:28.848Z,99952.67
2023-05-18T21:23:56.177Z,99947.77
2023-05-18T21:26:23.487Z,99953.95
2023-05-18T21:28:50.947Z,99951.10
2023-05-18T21:31:18.209Z,99952.97
2023-05-18T21:33:48.508Z,99950.79
2023-05-18T21:36:15.784Z,99950.79
2023-05-18T21:38:43.146Z,99951.05
2023-05-18T21:41:10.494Z,99951.75
2023-05-18T21:43:37.685Z,99950.41
2023-05-18T21:46:05.912Z,99953.48
2023-05-18T21:48:34.372Z,99952.13
2023-05-18T21:51:01.930Z,99955.23
2023-05-18T21:53:29.123Z,99954.05
2023-05-18T21:55:56.407Z,99954.08
2023-05-18T21:58:24.750Z,99954.14
2023-05-18T22:00:51.882Z,99952.29
2023-05-18T22:03:19.203Z,99953.69
2023-05-18T22:05:46.506Z,99953.17
2023-05-18T22:08:13.554Z,99952.10
2023-05-18T22:10:40.652Z,99953.52
2023-05-18T22:13:07.832Z,99953.66
2023-05-18T22:15:37.394Z,99951.80
2023-05-18T22:18:04.992Z,99947.66
2023-05-18T22:20:32.799Z,99944.25
2023-05-18T22:23:00.279Z,99945.91
2023-05-18T22:25:27.447Z,99946.98
2023-05-18T22:27:54.790Z,99944.92
2023-05-18T22:30:24.025Z,99948.39
2023-05-18T22:32:52.055Z,99951.21
2023-05-18T22:35:19.236Z,99956.08
2023-05-18T22:37:46.664Z,99959.53
2023-05-18T22:40:13.913Z,99959.23
2023-05-18T22:42:41.201Z,99960.61
2023-05-18T22:45:09.705Z,99967.45
2023-05-18T22:47:39.024Z,99972.36
2023-05-18T22:50:07.248Z,99974.98
2023-05-18T22:52:35.145Z,99969.56
2023-05-18T22:55:02.441Z,99970.25
2023-05-18T22:57:29.599Z,99972.08
2023-05-18T22:59:56.724Z,99972.40
2023-05-18T23:02:23.846Z,99971.81
2023-05-18T23:04:50.986Z,99972.83
2023-05-18T23:10:35.238Z,99973.58
2023-05-18T23:13:02.669Z,99970.08
2023-05-18T23:15:30.562Z,99966.29
2023-05-18T23:17:57.473Z,99970.70
2023-05-18T23:20:24.942Z,99971.46
2023-05-18T23:22:51.887Z,99966.77
2023-05-18T23:25:19.387Z,99969.72
2023-05-18T23:27:46.477Z,99965.57
2023-05-18T23:30:13.240Z,99968.84
2023-05-18T23:32:41.892Z,99973.96
2023-05-18T23:35:11.914Z,99975.41
2023-05-18T23:37:41.511Z,99973.45
2023-05-18T23:40:12.173Z,99976.84
2023-05-18T23:42:39.329Z,99980.04
2023-05-18T23:45:06.954Z,99983.05
2023-05-18T23:47:34.334Z,99977.93
2023-05-18T23:50:01.739Z,99980.67
2023-05-18T23:52:29.625Z,99981.28
2023-05-18T23:54:58.223Z,99979.60
2023-05-18T23:57:25.471Z,99978.42
2023-05-18T23:59:52.487Z,99977.33
